sensor_id;sensor_type;location;lat;lon;timestamp;pressure;altitude;pressure_sealevel;temperature;humidity
62150;BME280;48134;53.586;10.610;2023-09-19T00:02:09;99713.59;;;15.45;100.00
62150;BME280;48134;53.586;10.610;2023-09-19T00:04:43;99718.53;;;15.31;100.00
62150;BME280;48134;53.586;10.610;2023-09-19T00:07:16;99713.19;;;15.35;100.00
62150;BME280;48134;53.586;10.610;2023-09-19T00:09:49;99718.09;;;15.29;100.00
62150;BME280;48134;53.586;10.610;2023-09-19T00:12:23;99716.38;;;15.37;100.00
62150;BME280;48134;53.586;10.610;2023-09-19T00:14:52;99711.13;;;15.32;100.00
62150;BME280;48134;53.586;10.610;2023-09-19T00:17:21;99714.84;;;15.27;100.00
62150;BME280;48134;53.586;10.610;2023-09-19T00:19:49;99721.03;;;15.24;100.00
62150;BME280;48134;53.586;10.610;2023-09-19T00:22:24;99721.75;;;15.33;100.00
62150;BME280;48134;53.586;10.610;2023-09-19T00:24:53;99720.16;;;15.32;100.00
62150;BME280;48134;53.586;10.610;2023-09-19T00:27:22;99723.69;;;15.33;100.00
62150;BME280;48134;53.586;10.610;2023-09-19T00:29:50;99726.84;;;15.22;100.00
62150;BME280;48134;53.586;10.610;2023-09-19T00:32:21;99721.47;;;15.26;100.00
62150;BME280;48134;53.586;10.610;2023-09-19T00:34:49;99719.47;;;15.14;100.00
62150;BME280;48134;53.586;10.610;2023-09-19T00:37:17;99724.97;;;15.14;100.00
62150;BME280;48134;53.586;10.610;2023-09-19T00:39:51;99723.56;;;15.29;100.00
62150;BME280;48134;53.586;10.610;2023-09-19T00:42:19;99719.66;;;15.30;100.00
62150;BME280;48134;53.586;10.610;2023-09-19T00:44:53;99724.09;;;15.22;100.00
62150;BME280;48134;53.586;10.610;2023-09-19T00:47:22;99718.47;;;15.19;100.00
62150;BME280;48134;53.586;10.610;2023-09-19T00:49:57;99719.22;;;15.28;100.00
62150;BME280;48134;53.586;10.610;2023-09-19T00:52:26;99724.78;;;15.19;100.00
62150;BME280;48134;53.586;10.610;2023-09-19T00:55:00;99718.63;;;15.22;100.00
62150;BME280;48134;53.586;10.610;2023-09-19T00:57:29;99717.88;;;15.13;100.00
62150;BME280;48134;53.586;10.610;2023-09-19T01:00:06;99713.59;;;15.03;100.00
62150;BME280;48134;53.586;10.610;2023-09-19T01:02:44;99718.03;;;15.17;100.00
62150;BME280;48134;53.586;10.610;2023-09-19T01:05:13;99717.75;;;15.09;100.00
62150;BME280;48134;53.586;10.610;2023-09-19T01:07:40;99731.97;;;15.24;100.00
62150;BME280;48134;53.586;10.610;2023-09-19T01:10:11;99718.88;;;15.08;100.00
62150;BME280;48134;53.586;10.610;2023-09-19T01:12:52;99724.56;;;15.03;100.00
62150;BME280;48134;53.586;10.610;2023-09-19T01:15:30;99730.56;;;15.18;100.00
62150;BME280;48134;53.586;10.610;2023-09-19T01:18:11;99722.03;;;15.19;100.00
62150;BME280;48134;53.586;10.610;2023-09-19T01:20:45;99729.44;;;15.19;100.00
62150;BME280;48134;53.586;10.610;2023-09-19T01:23:23;99727.44;;;15.07;100.00
62150;BME280;48134;53.586;10.610;2023-09-19T01:26:18;99724.69;;;15.07;100.00
62150;BME280;48134;53.586;10.610;2023-09-19T01:28:53;99729.84;;;15.08;100.00
62150;BME280;48134;53.586;10.610;2023-09-19T01:31:33;99732.97;;;14.98;100.00
62150;BME280;48134;53.586;10.610;2023-09-19T01:34:04;99739.34;;;15.11;100.00
62150;BME280;48134;53.586;10.610;2023-09-19T01:36:35;99733.72;;;15.07;100.00
62150;BME280;48134;53.586;10.610;2023-09-19T01:39:08;99725.16;;;15.09;100.00
62150;BME280;48134;53.586;10.610;2023-09-19T01:41:57;99733.78;;;14.99;100.00
62150;BME280;48134;53.586;10.610;2023-09-19T01:44:33;99740.72;;;14.96;100.00
62150;BME280;48134;53.586;10.610;2023-09-19T01:47:13;99746.22;;;14.96;100.00
62150;BME280;48134;53.586;10.610;2023-09-19T01:49:55;99737.03;;;14.92;100.00
62150;BME280;48134;53.586;10.610;2023-09-19T01:52:31;99732.03;;;14.94;100.00
62150;BME280;48134;53.586;10.610;2023-09-19T01:55:09;99743.03;;;14.85;100.00
62150;BME280;48134;53.586;10.610;2023-09-19T01:57:49;99735.63;;;14.86;100.00
62150;BME280;48134;53.586;10.610;2023-09-19T02:00:21;99736.97;;;14.79;100.00
62150;BME280;48134;53.586;10.610;2023-09-19T02:02:54;99744.31;;;14.88;100.00
62150;BME280;48134;53.586;10.610;2023-09-19T02:05:30;99740.91;;;14.91;100.00
62150;BME280;48134;53.586;10.610;2023-09-19T02:08:00;99744.78;;;14.90;100.00
62150;BME280;48134;53.586;10.610;2023-09-19T02:10:33;99744.50;;;14.83;100.00
62150;BME280;48134;53.586;10.610;2023-09-19T02:13:02;99741.59;;;14.88;100.00
62150;BME280;48134;53.586;10.610;2023-09-19T02:15:31;99750.25;;;14.90;100.00
62150;BME280;48134;53.586;10.610;2023-09-19T02:18:03;99758.28;;;14.95;100.00
62150;BME280;48134;53.586;10.610;2023-09-19T02:20:31;99751.00;;;14.99;100.00
62150;BME280;48134;53.586;10.610;2023-09-19T02:23:00;99750.56;;;14.97;100.00
62150;BME280;48134;53.586;10.610;2023-09-19T02:25:34;99773.53;;;15.05;100.00
62150;BME280;48134;53.586;10.610;2023-09-19T02:28:05;99768.72;;;15.02;100.00
62150;BME280;48134;53.586;10.610;2023-09-19T02:30:34;99776.69;;;14.94;100.00
62150;BME280;48134;53.586;10.610;2023-09-19T02:33:04;99774.66;;;15.04;100.00
62150;BME280;48134;53.586;10.610;2023-09-19T02:35:32;99781.44;;;15.06;100.00
62150;BME280;48134;53.586;10.610;2023-09-19T02:38:03;99789.78;;;15.10;100.00
62150;BME280;48134;53.586;10.610;2023-09-19T02:40:33;99783.22;;;15.02;100.00
62150;BME280;48134;53.586;10.610;2023-09-19T02:43:07;99796.81;;;14.90;100.00
62150;BME280;48134;53.586;10.610;2023-09-19T02:45:36;99795.97;;;14.98;100.00
62150;BME280;48134;53.586;10.610;2023-09-19T02:48:06;99788.59;;;14.99;100.00
62150;BME280;48134;53.586;10.610;2023-09-19T02:50:35;99795.84;;;14.94;100.00
62150;BME280;48134;53.586;10.610;2023-09-19T02:53:03;99802.91;;;14.95;100.00
62150;BME280;48134;53.586;10.610;2023-09-19T02:55:33;99801.97;;;14.91;100.00
62150;BME280;48134;53.586;10.610;2023-09-19T02:58:02;99798.72;;;14.98;100.00
62150;BME280;48134;53.586;10.610;2023-09-19T03:00:32;99806.31;;;14.92;100.00
62150;BME280;48134;53.586;10.610;2023-09-19T03:03:07;99813.41;;;14.93;100.00
62150;BME280;48134;53.586;10.610;2023-09-19T03:05:41;99802.31;;;14.90;100.00
62150;BME280;48134;53.586;10.610;2023-09-19T03:08:18;99808.78;;;14.85;100.00
62150;BME280;48134;53.586;10.610;2023-09-19T03:10:48;99806.09;;;14.76;100.00
62150;BME280;48134;53.586;10.610;2023-09-19T03:13:21;99810.41;;;14.77;100.00
62150;BME280;48134;53.586;10.610;2023-09-19T03:15:54;99811.25;;;14.78;100.00
62150;BME280;48134;53.586;10.610;2023-09-19T03:18:30;99808.50;;;14.78;100.00
62150;BME280;48134;53.586;10.610;2023-09-19T03:20:59;99804.81;;;14.74;100.00
62150;BME280;48134;53.586;10.610;2023-09-19T03:23:32;99812.38;;;14.77;100.00
62150;BME280;48134;53.586;10.610;2023-09-19T03:26:01;99819.78;;;14.76;100.00
62150;BME280;48134;53.586;10.610;2023-09-19T03:28:33;99814.59;;;14.84;100.00
62150;BME280;48134;53.586;10.610;2023-09-19T03:31:04;99813.81;;;14.83;100.00
62150;BME280;48134;53.586;10.610;2023-09-19T03:33:39;99821.06;;;14.79;100.00
62150;BME280;48134;53.586;10.610;2023-09-19T03:36:13;99811.56;;;14.76;100.00
62150;BME280;48134;53.586;10.610;2023-09-19T03:38:41;99810.56;;;14.81;100.00
62150;BME280;48134;53.586;10.610;2023-09-19T03:41:14;99808.00;;;14.76;100.00
62150;BME280;48134;53.586;10.610;2023-09-19T03:43:45;99807.69;;;14.77;100.00
62150;BME280;48134;53.586;10.610;2023-09-19T03:46:13;99805.94;;;14.73;100.00
62150;BME280;48134;53.586;10.610;2023-09-19T03:48:44;99812.41;;;14.68;100.00
62150;BME280;48134;53.586;10.610;2023-09-19T03:51:12;99816.63;;;14.66;100.00
62150;BME280;48134;53.586;10.610;2023-09-19T03:53:40;99817.22;;;14.71;100.00
62150;BME280;48134;53.586;10.610;2023-09-19T03:56:09;99815.72;;;14.83;100.00
62150;BME280;48134;53.586;10.610;2023-09-19T03:58:38;99813.16;;;14.77;100.00
62150;BME280;48134;53.586;10.610;2023-09-19T04:01:11;99823.53;;;14.63;100.00
62150;BME280;48134;53.586;10.610;2023-09-19T04:03:40;99820.63;;;14.59;100.00
62150;BME280;48134;53.586;10.610;2023-09-19T04:06:16;99826.75;;;14.56;100.00
62150;BME280;48134;53.586;10.610;2023-09-19T04:08:45;99818.38;;;14.53;100.00
62150;BME280;48134;53.586;10.610;2023-09-19T04:11:19;99824.34;;;14.55;100.00
62150;BME280;48134;53.586;10.610;2023-09-19T04:13:48;99834.72;;;14.32;100.00
62150;BME280;48134;53.586;10.610;2023-09-19T04:16:21;99829.06;;;14.37;100.00
62150;BME280;48134;53.586;10.610;2023-09-19T04:18:55;99840.84;;;14.28;100.00
62150;BME280;48134;53.586;10.610;2023-09-19T04:21:25;99844.25;;;14.25;100.00
62150;BME280;48134;53.586;10.610;2023-09-19T04:23:55;99842.16;;;14.14;100.00
62150;BME280;48134;53.586;10.610;2023-09-19T04:26:23;99849.72;;;14.08;100.00
62150;BME280;48134;53.586;10.610;2023-09-19T04:28:59;99843.28;;;14.04;100.00
62150;BME280;48134;53.586;10.610;2023-09-19T04:31:28;99856.50;;;14.02;100.00
62150;BME280;48134;53.586;10.610;2023-09-19T04:34:01;99870.66;;;14.04;100.00
62150;BME280;48134;53.586;10.610;2023-09-19T04:36:31;99865.69;;;13.88;100.00
62150;BME280;48134;53.586;10.610;2023-09-19T04:39:00;99883.53;;;13.94;100.00
62150;BME280;48134;53.586;10.610;2023-09-19T04:41:31;99884.34;;;13.77;100.00
62150;BME280;48134;53.586;10.610;2023-09-19T04:44:00;99901.38;;;13.74;100.00
62150;BME280;48134;53.586;10.610;2023-09-19T04:46:33;99900.41;;;13.79;100.00
62150;BME280;48134;53.586;10.610;2023-09-19T04:49:02;99905.56;;;13.72;100.00
62150;BME280;48134;53.586;10.610;2023-09-19T04:51:31;99900.09;;;13.72;100.00
62150;BME280;48134;53.586;10.610;2023-09-19T04:54:01;99913.75;;;13.63;100.00
62150;BME280;48134;53.586;10.610;2023-09-19T04:56:30;99904.28;;;13.69;100.00
62150;BME280;48134;53.586;10.610;2023-09-19T04:59:04;99918.09;;;13.64;100.00
62150;BME280;48134;53.586;10.610;2023-09-19T05:01:32;99916.31;;;13.59;100.00
62150;BME280;48134;53.586;10.610;2023-09-19T05:04:00;99926.28;;;13.55;100.00
62150;BME280;48134;53.586;10.610;2023-09-19T05:06:29;99925.13;;;13.48;100.00
62150;BME280;48134;53.586;10.610;2023-09-19T05:08:58;99928.34;;;13.41;100.00
62150;BME280;48134;53.586;10.610;2023-09-19T05:11:27;99924.78;;;13.40;100.00
62150;BME280;48134;53.586;10.610;2023-09-19T05:14:02;99926.22;;;13.38;100.00
62150;BME280;48134;53.586;10.610;2023-09-19T05:16:35;99937.75;;;13.35;100.00
62150;BME280;48134;53.586;10.610;2023-09-19T05:19:08;99945.63;;;13.27;100.00
62150;BME280;48134;53.586;10.610;2023-09-19T05:21:38;99953.09;;;13.36;100.00
62150;BME280;48134;53.586;10.610;2023-09-19T05:24:13;99949.81;;;13.34;100.00
62150;BME280;48134;53.586;10.610;2023-09-19T05:26:46;99938.53;;;13.26;100.00
62150;BME280;48134;53.586;10.610;2023-09-19T05:29:20;99944.81;;;13.27;100.00
62150;BME280;48134;53.586;10.610;2023-09-19T05:31:48;99956.38;;;13.24;100.00
62150;BME280;48134;53.586;10.610;2023-09-19T05:34:21;99963.44;;;13.25;100.00
62150;BME280;48134;53.586;10.610;2023-09-19T05:36:49;99972.28;;;13.22;100.00
62150;BME280;48134;53.586;10.610;2023-09-19T05:39:25;99964.34;;;13.12;100.00
62150;BME280;48134;53.586;10.610;2023-09-19T05:41:58;99967.84;;;13.03;100.00
62150;BME280;48134;53.586;10.610;2023-09-19T05:44:32;99968.69;;;13.13;100.00
62150;BME280;48134;53.586;10.610;2023-09-19T05:47:00;99974.88;;;12.96;100.00
62150;BME280;48134;53.586;10.610;2023-09-19T05:49:33;99977.34;;;13.06;100.00
62150;BME280;48134;53.586;10.610;2023-09-19T05:52:02;99973.00;;;13.05;100.00
62150;BME280;48134;53.586;10.610;2023-09-19T05:54:33;99974.06;;;12.95;100.00
62150;BME280;48134;53.586;10.610;2023-09-19T05:57:01;99973.00;;;13.05;100.00
62150;BME280;48134;53.586;10.610;2023-09-19T05:59:30;99977.41;;;13.15;100.00
62150;BME280;48134;53.586;10.610;2023-09-19T06:02:03;99969.00;;;13.02;100.00
62150;BME280;48134;53.586;10.610;2023-09-19T06:04:37;99973.22;;;13.17;100.00
62150;BME280;48134;53.586;10.610;2023-09-19T06:07:07;99975.16;;;13.17;100.00
62150;BME280;48134;53.586;10.610;2023-09-19T06:09:37;99974.38;;;13.25;100.00
62150;BME280;48134;53.586;10.610;2023-09-19T06:12:06;99976.78;;;13.26;100.00
62150;BME280;48134;53.586;10.610;2023-09-19T06:14:34;99978.75;;;13.35;100.00
62150;BME280;48134;53.586;10.610;2023-09-19T06:17:07;99989.25;;;13.41;100.00
62150;BME280;48134;53.586;10.610;2023-09-19T06:19:36;99975.78;;;13.45;100.00
62150;BME280;48134;53.586;10.610;2023-09-19T06:22:04;99978.41;;;13.59;100.00
62150;BME280;48134;53.586;10.610;2023-09-19T06:24:38;99980.44;;;13.53;100.00
62150;BME280;48134;53.586;10.610;2023-09-19T06:27:07;99976.66;;;13.63;100.00
62150;BME280;48134;53.586;10.610;2023-09-19T06:29:40;99995.97;;;13.75;100.00
62150;BME280;48134;53.586;10.610;2023-09-19T06:32:14;99988.25;;;13.86;100.00
62150;BME280;48134;53.586;10.610;2023-09-19T06:34:42;100000.66;;;13.92;100.00
62150;BME280;48134;53.586;10.610;2023-09-19T06:37:10;99994.25;;;14.06;100.00
62150;BME280;48134;53.586;10.610;2023-09-19T06:39:40;99985.72;;;14.07;100.00
62150;BME280;48134;53.586;10.610;2023-09-19T06:42:08;99994.09;;;14.11;100.00
62150;BME280;48134;53.586;10.610;2023-09-19T06:44:37;99987.34;;;14.17;100.00
62150;BME280;48134;53.586;10.610;2023-09-19T06:47:11;99999.88;;;14.18;100.00
62150;BME280;48134;53.586;10.610;2023-09-19T06:49:39;100008.78;;;14.24;100.00
62150;BME280;48134;53.586;10.610;2023-09-19T06:52:08;99988.47;;;14.25;100.00
62150;BME280;48134;53.586;10.610;2023-09-19T06:54:36;99996.19;;;14.32;100.00
62150;BME280;48134;53.586;10.610;2023-09-19T06:57:05;100002.47;;;14.23;100.00
62150;BME280;48134;53.586;10.610;2023-09-19T06:59:36;100007.00;;;14.37;100.00
62150;BME280;48134;53.586;10.610;2023-09-19T07:02:05;100012.00;;;14.43;100.00
62150;BME280;48134;53.586;10.610;2023-09-19T07:04:35;100001.19;;;14.38;100.00
62150;BME280;48134;53.586;10.610;2023-09-19T07:07:03;100003.28;;;14.41;100.00
62150;BME280;48134;53.586;10.610;2023-09-19T07:09:31;100010.38;;;14.60;100.00
62150;BME280;48134;53.586;10.610;2023-09-19T07:12:00;100009.88;;;14.58;100.00
62150;BME280;48134;53.586;10.610;2023-09-19T07:14:34;100006.81;;;14.51;100.00
62150;BME280;48134;53.586;10.610;2023-09-19T07:17:03;99999.25;;;14.56;100.00
62150;BME280;48134;53.586;10.610;2023-09-19T07:19:36;100010.69;;;14.58;100.00
62150;BME280;48134;53.586;10.610;2023-09-19T07:22:10;100012.34;;;14.68;100.00
62150;BME280;48134;53.586;10.610;2023-09-19T07:24:43;100020.34;;;14.73;100.00
62150;BME280;48134;53.586;10.610;2023-09-19T07:27:17;100016.31;;;14.62;100.00
62150;BME280;48134;53.586;10.610;2023-09-19T07:29:47;100024.56;;;14.71;100.00
62150;BME280;48134;53.586;10.610;2023-09-19T07:32:15;100036.66;;;14.70;100.00
62150;BME280;48134;53.586;10.610;2023-09-19T07:34:45;100029.72;;;14.81;100.00
62150;BME280;48134;53.586;10.610;2023-09-19T07:37:13;100042.78;;;14.67;100.00
62150;BME280;48134;53.586;10.610;2023-09-19T07:39:48;100051.94;;;14.79;100.00
62150;BME280;48134;53.586;10.610;2023-09-19T07:42:17;100042.91;;;14.88;100.00
62150;BME280;48134;53.586;10.610;2023-09-19T07:44:47;100061.28;;;14.96;100.00
62150;BME280;48134;53.586;10.610;2023-09-19T07:47:22;100046.63;;;14.92;100.00
62150;BME280;48134;53.586;10.610;2023-09-19T07:49:51;100044.34;;;14.94;100.00
62150;BME280;48134;53.586;10.610;2023-09-19T07:52:19;100031.94;;;14.96;100.00
62150;BME280;48134;53.586;10.610;2023-09-19T07:54:48;100062.91;;;14.97;100.00
62150;BME280;48134;53.586;10.610;2023-09-19T07:57:16;100059.00;;;14.98;100.00
62150;BME280;48134;53.586;10.610;2023-09-19T07:59:45;100057.41;;;14.97;100.00
62150;BME280;48134;53.586;10.610;2023-09-19T08:02:14;100062.84;;;15.14;100.00
62150;BME280;48134;53.586;10.610;2023-09-19T08:04:43;100068.47;;;15.27;100.00
62150;BME280;48134;53.586;10.610;2023-09-19T08:07:12;100051.34;;;15.39;100.00
62150;BME280;48134;53.586;10.610;2023-09-19T08:09:41;100044.75;;;15.31;100.00
62150;BME280;48134;53.586;10.610;2023-09-19T08:12:18;100064.75;;;15.32;100.00
62150;BME280;48134;53.586;10.610;2023-09-19T08:14:57;100057.03;;;15.16;100.00
62150;BME280;48134;53.586;10.610;2023-09-19T08:17:35;100064.81;;;15.05;100.00
62150;BME280;48134;53.586;10.610;2023-09-19T08:20:04;100056.06;;;15.12;100.00
62150;BME280;48134;53.586;10.610;2023-09-19T08:22:37;100063.03;;;15.09;100.00
62150;BME280;48134;53.586;10.610;2023-09-19T08:25:05;100054.81;;;15.01;100.00
62150;BME280;48134;53.586;10.610;2023-09-19T08:27:34;100053.84;;;14.96;100.00
62150;BME280;48134;53.586;10.610;2023-09-19T08:30:04;100068.34;;;15.06;100.00
62150;BME280;48134;53.586;10.610;2023-09-19T08:32:34;100062.91;;;14.97;100.00
62150;BME280;48134;53.586;10.610;2023-09-19T08:35:03;100066.09;;;14.99;100.00
62150;BME280;48134;53.586;10.610;2023-09-19T08:37:31;100066.72;;;15.05;100.00
62150;BME280;48134;53.586;10.610;2023-09-19T08:40:00;100075.75;;;15.14;100.00
62150;BME280;48134;53.586;10.610;2023-09-19T08:42:28;100080.75;;;15.21;100.00
62150;BME280;48134;53.586;10.610;2023-09-19T08:44:57;100087.19;;;15.25;100.00
62150;BME280;48134;53.586;10.610;2023-09-19T08:47:37;100087.00;;;15.30;100.00
62150;BME280;48134;53.586;10.610;2023-09-19T08:50:19;100075.59;;;15.19;100.00
62150;BME280;48134;53.586;10.610;2023-09-19T08:52:54;100076.22;;;15.16;100.00
62150;BME280;48134;53.586;10.610;2023-09-19T08:55:27;100065.56;;;15.32;100.00
62150;BME280;48134;53.586;10.610;2023-09-19T08:58:00;100068.00;;;15.16;100.00
62150;BME280;48134;53.586;10.610;2023-09-19T09:00:34;100062.84;;;15.23;100.00
62150;BME280;48134;53.586;10.610;2023-09-19T09:03:09;100068.13;;;15.28;100.00
62150;BME280;48134;53.586;10.610;2023-09-19T09:05:43;100073.66;;;15.20;100.00
62150;BME280;48134;53.586;10.610;2023-09-19T09:08:19;100071.22;;;15.18;100.00
62150;BME280;48134;53.586;10.610;2023-09-19T09:10:54;100075.59;;;15.19;100.00
62150;BME280;48134;53.586;10.610;2023-09-19T09:13:22;100072.97;;;15.23;100.00
62150;BME280;48134;53.586;10.610;2023-09-19T09:15:58;100089.28;;;15.19;100.00
62150;BME280;48134;53.586;10.610;2023-09-19T09:18:33;100064.88;;;15.35;100.00
62150;BME280;48134;53.586;10.610;2023-09-19T09:21:01;100078.63;;;15.26;100.00
62150;BME280;48134;53.586;10.610;2023-09-19T09:23:31;100079.91;;;15.29;100.00
62150;BME280;48134;53.586;10.610;2023-09-19T09:26:00;100079.38;;;15.44;100.00
62150;BME280;48134;53.586;10.610;2023-09-19T09:28:31;100079.03;;;15.55;100.00
62150;BME280;48134;53.586;10.610;2023-09-19T09:31:01;100083.81;;;15.67;100.00
62150;BME280;48134;53.586;10.610;2023-09-19T09:33:36;100088.53;;;15.66;100.00
62150;BME280;48134;53.586;10.610;2023-09-19T09:36:05;100090.16;;;15.58;100.00
62150;BME280;48134;53.586;10.610;2023-09-19T09:38:43;100085.81;;;15.48;100.00
62150;BME280;48134;53.586;10.610;2023-09-19T09:41:12;100088.88;;;15.56;100.00
62150;BME280;48134;53.586;10.610;2023-09-19T09:43:48;100086.91;;;15.56;100.00
62150;BME280;48134;53.586;10.610;2023-09-19T09:46:17;100090.78;;;15.64;100.00
62150;BME280;48134;53.586;10.610;2023-09-19T09:49:02;100092.69;;;15.72;100.00
62150;BME280;48134;53.586;10.610;2023-09-19T09:51:51;100093.34;;;15.69;100.00
62150;BME280;48134;53.586;10.610;2023-09-19T09:54:27;100103.50;;;15.69;100.00
62150;BME280;48134;53.586;10.610;2023-09-19T09:57:02;100100.88;;;15.90;100.00
62150;BME280;48134;53.586;10.610;2023-09-19T09:59:56;100106.63;;;15.97;100.00
62150;BME280;48134;53.586;10.610;2023-09-19T10:02:38;100095.66;;;16.27;100.00
62150;BME280;48134;53.586;10.610;2023-09-19T10:05:13;100102.19;;;16.13;100.00
62150;BME280;48134;53.586;10.610;2023-09-19T10:07:50;100107.75;;;16.05;100.00
62150;BME280;48134;53.586;10.610;2023-09-19T10:10:30;100103.31;;;16.12;100.00
62150;BME280;48134;53.586;10.610;2023-09-19T10:13:07;100100.53;;;16.21;100.00
62150;BME280;48134;53.586;10.610;2023-09-19T10:15:42;100097.06;;;16.33;100.00
62150;BME280;48134;53.586;10.610;2023-09-19T10:18:20;100099.41;;;16.22;100.00
62150;BME280;48134;53.586;10.610;2023-09-19T10:20:55;100097.63;;;16.47;100.00
62150;BME280;48134;53.586;10.610;2023-09-19T10:23:24;100105.88;;;16.47;100.00
62150;BME280;48134;53.586;10.610;2023-09-19T10:25:57;100102.22;;;16.35;100.00
62150;BME280;48134;53.586;10.610;2023-09-19T10:28:28;100097.50;;;16.44;100.00
62150;BME280;48134;53.586;10.610;2023-09-19T10:30:59;100107.72;;;16.56;100.00
62150;BME280;48134;53.586;10.610;2023-09-19T10:33:35;100103.69;;;16.32;100.00
62150;BME280;48134;53.586;10.610;2023-09-19T10:36:06;100102.97;;;16.44;100.00
62150;BME280;48134;53.586;10.610;2023-09-19T10:38:37;100114.13;;;16.47;100.00
62150;BME280;48134;53.586;10.610;2023-09-19T10:41:08;100117.25;;;16.37;100.00
62150;BME280;48134;53.586;10.610;2023-09-19T10:43:45;100111.66;;;16.25;100.00
62150;BME280;48134;53.586;10.610;2023-09-19T10:46:21;100104.50;;;16.32;100.00
62150;BME280;48134;53.586;10.610;2023-09-19T10:48:58;100105.38;;;16.45;100.00
62150;BME280;48134;53.586;10.610;2023-09-19T10:51:31;100106.78;;;16.52;100.00
62150;BME280;48134;53.586;10.610;2023-09-19T10:54:06;100095.34;;;16.28;100.00
62150;BME280;48134;53.586;10.610;2023-09-19T10:56:46;100101.56;;;16.38;100.00
62150;BME280;48134;53.586;10.610;2023-09-19T10:59:18;100101.25;;;16.39;100.00
62150;BME280;48134;53.586;10.610;2023-09-19T11:01:54;100100.50;;;16.51;100.00
62150;BME280;48134;53.586;10.610;2023-09-19T11:04:25;100097.44;;;16.74;100.00
62150;BME280;48134;53.586;10.610;2023-09-19T11:07:09;100099.50;;;16.77;100.00
62150;BME280;48134;53.586;10.610;2023-09-19T11:09:43;100098.16;;;16.83;100.00
62150;BME280;48134;53.586;10.610;2023-09-19T11:12:26;100096.50;;;16.91;100.00
62150;BME280;48134;53.586;10.610;2023-09-19T11:15:10;100094.91;;;16.90;100.00
62150;BME280;48134;53.586;10.610;2023-09-19T11:17:45;100104.47;;;16.83;100.00
62150;BME280;48134;53.586;10.610;2023-09-19T11:20:21;100104.31;;;16.80;100.00
62150;BME280;48134;53.586;10.610;2023-09-19T11:23:28;100109.13;;;16.92;100.00
62150;BME280;48134;53.586;10.610;2023-09-19T11:25:57;100097.88;;;16.76;100.00
62150;BME280;48134;53.586;10.610;2023-09-19T11:28:34;100093.47;;;16.62;100.00
62150;BME280;48134;53.586;10.610;2023-09-19T11:34:46;100100.56;;;16.63;100.00
62150;BME280;48134;53.586;10.610;2023-09-19T11:40:30;100107.09;;;16.59;100.00
62150;BME280;48134;53.586;10.610;2023-09-19T11:42:59;100095.19;;;16.46;100.00
62150;BME280;48134;53.586;10.610;2023-09-19T11:46:03;100094.00;;;16.56;100.00
62150;BME280;48134;53.586;10.610;2023-09-19T11:48:41;100102.16;;;16.86;100.00
62150;BME280;48134;53.586;10.610;2023-09-19T11:51:12;100103.44;;;16.88;100.00
62150;BME280;48134;53.586;10.610;2023-09-19T11:53:46;100098.81;;;17.01;100.00
62150;BME280;48134;53.586;10.610;2023-09-19T11:56:21;100108.94;;;16.88;100.00
62150;BME280;48134;53.586;10.610;2023-09-19T11:58:56;100099.91;;;16.88;100.00
62150;BME280;48134;53.586;10.610;2023-09-19T12:01:29;100100.38;;;16.90;100.00
62150;BME280;48134;53.586;10.610;2023-09-19T12:04:04;100092.34;;;17.06;100.00
62150;BME280;48134;53.586;10.610;2023-09-19T12:06:32;100090.59;;;17.01;100.00
62150;BME280;48134;53.586;10.610;2023-09-19T12:09:00;100098.97;;;16.83;100.00
62150;BME280;48134;53.586;10.610;2023-09-19T12:11:42;100091.47;;;16.93;100.00
62150;BME280;48134;53.586;10.610;2023-09-19T12:14:22;100090.53;;;16.89;100.00
62150;BME280;48134;53.586;10.610;2023-09-19T12:16:53;100098.91;;;16.92;100.00
62150;BME280;48134;53.586;10.610;2023-09-19T12:19:27;100090.13;;;16.78;100.00
62150;BME280;48134;53.586;10.610;2023-09-19T12:21:57;100086.56;;;16.98;100.00
62150;BME280;48134;53.586;10.610;2023-09-19T12:24:26;100096.63;;;16.94;100.00
62150;BME280;48134;53.586;10.610;2023-09-19T12:27:02;100096.56;;;17.03;100.00
62150;BME280;48134;53.586;10.610;2023-09-19T12:29:42;100083.16;;;17.02;100.00
62150;BME280;48134;53.586;10.610;2023-09-19T12:32:11;100097.47;;;16.86;100.00
62150;BME280;48134;53.586;10.610;2023-09-19T12:34:42;100097.78;;;16.93;100.00
62150;BME280;48134;53.586;10.610;2023-09-19T12:37:11;100086.47;;;16.86;100.00
62150;BME280;48134;53.586;10.610;2023-09-19T12:39:40;100088.19;;;16.78;100.00
62150;BME280;48134;53.586;10.610;2023-09-19T12:42:14;100098.38;;;16.78;100.00
62150;BME280;48134;53.586;10.610;2023-09-19T12:44:49;100093.00;;;16.81;100.00
62150;BME280;48134;53.586;10.610;2023-09-19T12:47:27;100080.41;;;17.02;100.00
62150;BME280;48134;53.586;10.610;2023-09-19T12:50:12;100084.53;;;17.08;100.00
62150;BME280;48134;53.586;10.610;2023-09-19T12:52:50;100086.41;;;17.16;100.00
62150;BME280;48134;53.586;10.610;2023-09-19T12:55:23;100079.63;;;17.13;100.00
62150;BME280;48134;53.586;10.610;2023-09-19T12:58:02;100085.34;;;17.08;100.00
62150;BME280;48134;53.586;10.610;2023-09-19T13:00:38;100077.59;;;17.23;100.00
62150;BME280;48134;53.586;10.610;2023-09-19T13:03:12;100086.00;;;17.26;100.00
62150;BME280;48134;53.586;10.610;2023-09-19T13:05:48;100080.34;;;17.23;100.00
62150;BME280;48134;53.586;10.610;2023-09-19T13:08:18;100081.25;;;17.14;100.00
62150;BME280;48134;53.586;10.610;2023-09-19T13:11:06;100080.91;;;17.16;100.00